createdAt,value
2019-05-26T00:02:09.038Z,10.40
2019-05-26T00:07:27.932Z,10.40
2019-05-26T00:12:20.611Z,10.40
2019-05-26T00:17:25.131Z,10.40
2019-05-26T00:22:29.700Z,10.40
2019-05-26T00:27:34.281Z,10.40
2019-05-26T00:32:39.145Z,10.40
2019-05-26T00:37:49.706Z,10.40
2019-05-26T00:42:49.977Z,10.30
2019-05-26T00:47:54.636Z,10.30
2019-05-26T00:52:59.070Z,10.30
2019-05-26T00:58:03.734Z,10.30
2019-05-26T01:03:09.039Z,10.30
2019-05-26T01:08:13.742Z,10.40
2019-05-26T01:13:18.371Z,10.30
2019-05-26T01:18:23.036Z,10.40
2019-05-26T01:23:27.512Z,10.30
2019-05-26T01:28:32.195Z,10.30
2019-05-26T01:33:36.780Z,10.40
2019-05-26T01:38:41.487Z,10.50
2019-05-26T01:43:45.920Z,10.40
2019-05-26T01:48:50.516Z,10.40
2019-05-26T01:53:55.104Z,10.40
2019-05-26T01:58:59.545Z,10.40
2019-05-26T02:04:04.135Z,10.40
2019-05-26T02:09:09.346Z,10.40
2019-05-26T02:14:14.771Z,10.40
2019-05-26T02:19:19.321Z,10.40
2019-05-26T02:24:23.830Z,10.40
2019-05-26T02:29:28.492Z,10.40
2019-05-26T02:34:33.035Z,10.50
2019-05-26T02:39:37.626Z,10.60
2019-05-26T02:44:42.264Z,10.60
2019-05-26T02:49:46.777Z,10.60
2019-05-26T02:54:52.322Z,10.60
2019-05-26T02:59:56.837Z,10.70
2019-05-26T03:05:01.353Z,10.60
2019-05-26T03:10:06.894Z,10.70
2019-05-26T03:20:24.545Z,10.60
2019-05-26T03:25:31.329Z,10.60
2019-05-26T03:30:37.494Z,10.70
2019-05-26T03:35:42.308Z,10.80
2019-05-26T03:40:46.740Z,10.80
2019-05-26T03:45:55.886Z,10.70
2019-05-26T03:51:00.352Z,10.70
2019-05-26T03:56:04.932Z,10.60
2019-05-26T04:01:09.428Z,10.70
2019-05-26T04:06:13.926Z,10.80
2019-05-26T04:11:18.575Z,10.70
2019-05-26T04:16:23.113Z,10.80
2019-05-26T04:21:27.622Z,10.80
2019-05-26T04:26:32.182Z,10.90
2019-05-26T04:31:36.669Z,11.00
2019-05-26T04:36:41.311Z,11.00
2019-05-26T04:41:45.746Z,11.10
2019-05-26T04:46:50.178Z,11.20
2019-05-26T04:51:54.625Z,11.30
2019-05-26T04:56:59.893Z,11.40
2019-05-26T05:02:04.498Z,11.40
2019-05-26T05:07:09.088Z,11.60
2019-05-26T05:12:13.601Z,11.70
2019-05-26T05:17:18.027Z,11.70
2019-05-26T05:22:22.461Z,11.80
2019-05-26T05:27:27.122Z,12.00
2019-05-26T05:32:32.987Z,12.10
2019-05-26T05:37:37.775Z,12.30
2019-05-26T05:42:43.029Z,12.30
2019-05-26T05:47:47.470Z,12.30
2019-05-26T05:52:52.136Z,12.50
2019-05-26T05:57:56.553Z,12.60
2019-05-26T06:03:01.195Z,12.70
2019-05-26T06:08:06.136Z,12.90
2019-05-26T06:13:10.922Z,13.00
2019-05-26T06:18:15.510Z,12.90
2019-05-26T06:23:20.276Z,12.90
2019-05-26T06:28:24.848Z,12.90
2019-05-26T06:33:29.493Z,12.90
2019-05-26T06:38:33.985Z,13.10
2019-05-26T06:43:38.434Z,13.20
2019-05-26T06:48:43.089Z,13.30
2019-05-26T06:53:47.721Z,13.60
2019-05-26T06:58:52.297Z,13.70
2019-05-26T07:03:56.800Z,13.70
2019-05-26T07:09:01.372Z,13.70
2019-05-26T07:14:06.083Z,13.90
2019-05-26T07:19:10.634Z,14.00
2019-05-26T07:24:15.243Z,14.30
2019-05-26T07:29:19.742Z,14.40
2019-05-26T07:34:24.303Z,14.50
2019-05-26T07:39:29.113Z,14.70
2019-05-26T07:44:33.725Z,15.00
2019-05-26T07:49:38.243Z,14.90
2019-05-26T07:54:42.744Z,15.10
2019-05-26T07:59:47.526Z,15.10
2019-05-26T08:04:52.294Z,15.40
2019-05-26T08:09:56.943Z,15.20
2019-05-26T08:15:01.739Z,15.00
2019-05-26T08:20:11.022Z,15.20
2019-05-26T08:25:16.093Z,15.30
2019-05-26T08:30:20.725Z,15.20
2019-05-26T08:35:25.357Z,15.20
2019-05-26T08:40:30.005Z,15.20
2019-05-26T08:45:34.994Z,15.20
2019-05-26T08:50:39.879Z,14.90
2019-05-26T08:55:44.627Z,15.00
2019-05-26T09:00:49.162Z,15.10
2019-05-26T09:05:53.835Z,15.20
2019-05-26T09:10:58.545Z,15.10
2019-05-26T09:16:03.118Z,14.90
2019-05-26T09:21:07.633Z,14.90
2019-05-26T09:26:12.060Z,14.60
2019-05-26T09:31:16.618Z,14.40
2019-05-26T09:36:21.135Z,14.40
2019-05-26T09:41:25.830Z,14.40
2019-05-26T09:46:30.360Z,14.40
2019-05-26T09:51:34.856Z,14.30
2019-05-26T09:56:39.394Z,14.40
2019-05-26T10:01:43.838Z,14.30
2019-05-26T10:06:48.329Z,14.40
2019-05-26T10:11:52.838Z,14.50
2019-05-26T10:16:57.232Z,14.50
2019-05-26T10:22:01.677Z,14.50
2019-05-26T10:27:06.327Z,14.60
2019-05-26T10:32:18.622Z,14.80
2019-05-26T10:37:23.217Z,14.90
2019-05-26T10:42:28.027Z,14.90
2019-05-26T10:47:34.285Z,14.90
2019-05-26T10:52:39.996Z,14.80
2019-05-26T10:57:44.520Z,14.70
2019-05-26T11:02:49.016Z,14.90
2019-05-26T11:07:53.805Z,15.10
2019-05-26T11:12:58.987Z,15.20
2019-05-26T11:18:04.024Z,15.20
2019-05-26T11:23:08.497Z,15.20
2019-05-26T11:28:13.293Z,15.30
2019-05-26T11:33:17.841Z,15.20
2019-05-26T11:38:22.458Z,15.30
2019-05-26T11:43:27.179Z,15.30
2019-05-26T11:48:31.707Z,15.50
2019-05-26T11:53:36.326Z,15.50
2019-05-26T11:58:41.561Z,15.50
2019-05-26T12:03:46.282Z,15.50
2019-05-26T12:08:50.969Z,15.60
2019-05-26T12:13:57.200Z,15.70
2019-05-26T12:19:01.889Z,15.60
2019-05-26T12:24:14.284Z,15.70
2019-05-26T12:29:19.159Z,15.60
2019-05-26T12:34:26.744Z,15.70
2019-05-26T12:39:32.314Z,15.90
2019-05-26T12:44:49.640Z,16.00
2019-05-26T12:49:54.645Z,15.90
2019-05-26T12:55:10.594Z,16.20
2019-05-26T13:00:24.537Z,16.20
2019-05-26T13:05:58.025Z,16.00
2019-05-26T13:10:43.123Z,16.00
2019-05-26T13:15:56.621Z,15.90
2019-05-26T13:21:14.949Z,15.90
2019-05-26T13:26:21.283Z,15.70
2019-05-26T13:31:38.362Z,15.90
2019-05-26T13:36:49.017Z,15.90
2019-05-26T13:41:53.793Z,16.20
2019-05-26T13:47:00.420Z,16.10
2019-05-26T13:52:06.141Z,16.20
2019-05-26T13:57:10.827Z,16.10
2019-05-26T14:02:15.546Z,16.00
2019-05-26T14:07:20.257Z,15.80
2019-05-26T14:12:25.121Z,15.80
2019-05-26T14:17:30.495Z,15.90
2019-05-26T14:22:58.624Z,15.80
2019-05-26T14:28:09.633Z,15.90
2019-05-26T14:33:31.638Z,15.90
2019-05-26T14:38:43.268Z,15.90
2019-05-26T14:43:46.490Z,16.00
2019-05-26T14:49:41.525Z,16.10
2019-05-26T14:54:01.102Z,16.10
2019-05-26T14:59:24.027Z,16.20
2019-05-26T15:04:31.153Z,16.20
2019-05-26T15:09:40.320Z,16.20
2019-05-26T15:14:54.472Z,16.20
2019-05-26T15:27:11.746Z,16.50
2019-05-26T15:30:43.967Z,16.60
2019-05-26T15:36:05.511Z,16.80
2019-05-26T15:41:16.066Z,16.80
2019-05-26T15:46:25.160Z,16.80
2019-05-26T15:51:33.350Z,16.70
2019-05-26T15:56:38.371Z,16.70
2019-05-26T16:01:46.934Z,16.60
2019-05-26T16:06:59.202Z,16.60
2019-05-26T16:12:05.170Z,16.70
2019-05-26T16:17:09.816Z,16.70
2019-05-26T16:22:14.478Z,16.60
2019-05-26T16:27:20.013Z,16.60
2019-05-26T16:32:25.945Z,16.60
2019-05-26T16:37:33.081Z,16.60
2019-05-26T16:42:37.503Z,16.60
2019-05-26T16:47:42.265Z,16.70
2019-05-26T16:52:48.574Z,16.60
2019-05-26T16:57:54.457Z,16.50
2019-05-26T17:02:59.124Z,16.40
2019-05-26T17:08:03.931Z,16.40
2019-05-26T17:13:08.495Z,16.20
2019-05-26T17:18:13.972Z,16.00
2019-05-26T17:23:18.574Z,15.70
2019-05-26T17:28:23.268Z,15.50
2019-05-26T17:33:28.617Z,15.40
2019-05-26T17:38:34.266Z,15.40
2019-05-26T17:43:38.897Z,15.50
2019-05-26T17:48:43.680Z,15.50
2019-05-26T17:53:48.204Z,15.60
2019-05-26T17:58:52.725Z,15.60
2019-05-26T18:03:57.337Z,15.60
2019-05-26T18:09:01.987Z,15.60
2019-05-26T18:14:06.700Z,15.60
2019-05-26T18:19:11.436Z,15.50
2019-05-26T18:24:15.987Z,15.50
2019-05-26T18:29:20.747Z,15.40
2019-05-26T18:34:25.440Z,15.40
2019-05-26T18:39:30.063Z,15.50
2019-05-26T18:44:34.960Z,15.50
2019-05-26T18:49:39.586Z,15.50
2019-05-26T18:54:44.227Z,15.60
2019-05-26T18:59:48.992Z,15.60
2019-05-26T19:04:53.661Z,15.70
2019-05-26T19:09:58.331Z,15.60
2019-05-26T19:15:02.959Z,15.70
2019-05-26T19:20:15.989Z,15.60
2019-05-26T19:25:14.886Z,15.60
2019-05-26T19:30:20.413Z,15.70
2019-05-26T19:35:24.944Z,15.60
2019-05-26T19:40:29.365Z,15.70
2019-05-26T19:45:33.991Z,15.60
2019-05-26T19:50:38.594Z,15.60
2019-05-26T19:55:43.129Z,15.50
2019-05-26T20:00:47.819Z,15.60
2019-05-26T20:05:52.522Z,15.50
2019-05-26T20:10:57.225Z,15.50
2019-05-26T20:16:02.126Z,15.60
2019-05-26T20:21:06.874Z,15.50
2019-05-26T20:26:11.467Z,15.50
2019-05-26T20:31:16.256Z,15.50
2019-05-26T20:36:20.854Z,15.60
2019-05-26T20:41:25.536Z,15.50
2019-05-26T20:46:30.194Z,15.50
2019-05-26T20:51:34.766Z,15.50
2019-05-26T20:56:40.413Z,15.60
2019-05-26T21:01:45.079Z,15.60
2019-05-26T21:06:59.263Z,15.50
2019-05-26T21:12:07.467Z,15.60
2019-05-26T21:17:17.981Z,15.40
2019-05-26T21:22:24.211Z,15.40
2019-05-26T21:27:45.233Z,15.40
2019-05-26T21:32:51.883Z,15.40
2019-05-26T21:37:56.707Z,15.40
2019-05-26T21:43:06.440Z,15.40
2019-05-26T21:48:11.918Z,15.40
2019-05-26T21:53:19.695Z,15.30
2019-05-26T21:58:26.158Z,15.20
2019-05-26T22:03:30.774Z,15.30
2019-05-26T22:08:35.260Z,15.30
2019-05-26T22:13:39.774Z,15.30
2019-05-26T22:18:44.478Z,15.30
2019-05-26T22:23:49.215Z,15.30
2019-05-26T22:28:53.830Z,15.30
2019-05-26T22:33:58.975Z,15.20
2019-05-26T22:39:03.625Z,15.20
2019-05-26T22:44:08.386Z,15.30
2019-05-26T22:49:12.983Z,15.30
2019-05-26T22:54:17.838Z,15.30
2019-05-26T22:59:22.521Z,15.20
2019-05-26T23:04:28.990Z,15.20
2019-05-26T23:09:33.670Z,15.10
2019-05-26T23:14:38.348Z,15.10
2019-05-26T23:19:45.094Z,15.00
2019-05-26T23:24:49.958Z,15.10
2019-05-26T23:29:54.769Z,15.10
2019-05-26T23:34:59.403Z,15.10
2019-05-26T23:40:07.938Z,15.00
2019-05-26T23:45:12.921Z,15.00
2019-05-26T23:50:17.834Z,15.00
2019-05-26T23:55:22.425Z,15.10
